Time;durP1;ratioP1;P1;durP2;ratioP2;P2;SDS_P1;SDS_P2;PMS_P1;PMS_P2;Temp;Humidity;BMP_temperature;BMP_pressure;BME280_temperature;BME280_humidity;BME280_pressure;Samples;Min_cycle;Max_cycle;Signal;HPM_P1;HPM_P2
2022/04/16 00:02:07;;;;;;;0.77;0.70;;;2.70;94.30;;;;;;5013258;28;20101;-82
2022/04/16 00:04:33;;;;;;;1.55;0.70;;;2.70;94.50;;;;;;5013117;28;20026;-81
2022/04/16 00:06:59;;;;;;;1.27;0.55;;;2.60;94.50;;;;;;5012784;28;20054;-83
2022/04/16 00:09:25;;;;;;;1.23;0.63;;;2.60;94.60;;;;;;5013058;28;20053;-79
2022/04/16 00:11:50;;;;;;;0.68;0.68;;;2.60;94.80;;;;;;5013049;28;20030;-80
2022/04/16 00:14:17;;;;;;;1.73;1.20;;;2.50;95.10;;;;;;5013007;28;20048;-80
2022/04/16 00:16:44;;;;;;;0.60;0.60;;;2.40;95.50;;;;;;5012822;28;20678;-80
2022/04/16 00:19:11;;;;;;;0.60;0.60;;;2.40;95.80;;;;;;5013090;28;20121;-80
2022/04/16 00:21:38;;;;;;;1.95;0.70;;;2.40;95.90;;;;;;5012625;28;20033;-79
2022/04/16 00:24:04;;;;;;;0.63;0.50;;;2.40;95.80;;;;;;5012853;28;20104;-79
2022/04/16 00:26:30;;;;;;;1.95;0.70;;;2.40;96.00;;;;;;5012733;28;20469;-80
2022/04/16 00:28:58;;;;;;;1.80;0.95;;;2.40;96.30;;;;;;5011235;28;20052;-76
2022/04/16 00:31:25;;;;;;;1.52;0.70;;;2.30;96.40;;;;;;5012775;28;20057;-76
2022/04/16 00:33:52;;;;;;;0.50;0.50;;;2.30;96.40;;;;;;5012437;28;20469;-77
2022/04/16 00:36:18;;;;;;;1.27;0.75;;;2.30;96.50;;;;;;5012573;28;20358;-76
2022/04/16 00:38:43;;;;;;;0.88;0.70;;;2.30;96.60;;;;;;5012219;28;20172;-77
2022/04/16 00:41:11;;;;;;;2.33;0.70;;;2.20;96.50;;;;;;5012540;28;20026;-76
2022/04/16 00:43:37;;;;;;;0.60;0.60;;;2.10;96.70;;;;;;5012473;28;20494;-75
2022/04/16 00:46:02;;;;;;;2.15;0.75;;;2.10;97.20;;;;;;5011645;28;20033;-76
2022/04/16 00:48:28;;;;;;;1.65;0.68;;;2.00;97.80;;;;;;5012448;28;20429;-76
2022/04/16 00:50:55;;;;;;;0.93;0.80;;;2.00;98.10;;;;;;5012315;28;20022;-76
2022/04/16 00:53:25;;;;;;;1.83;0.77;;;2.00;98.00;;;;;;5012298;28;20036;-76
2022/04/16 00:55:51;;;;;;;0.50;0.50;;;2.00;97.90;;;;;;5012247;28;20025;-76
2022/04/16 00:58:18;;;;;;;5.13;0.68;;;2.00;97.80;;;;;;5012475;28;20045;-76
2022/04/16 01:00:43;;;;;;;0.80;0.60;;;2.00;97.80;;;;;;5012373;28;20065;-78
2022/04/16 01:03:09;;;;;;;2.70;0.60;;;2.00;98.00;;;;;;5012258;28;20053;-78
2022/04/16 01:05:37;;;;;;;0.80;0.70;;;2.00;97.90;;;;;;5012382;28;20025;-78
2022/04/16 01:08:04;;;;;;;2.13;0.80;;;2.00;97.80;;;;;;5012109;28;20635;-78
2022/04/16 01:10:32;;;;;;;0.68;0.60;;;2.00;98.00;;;;;;5012561;28;20104;-78
2022/04/16 01:13:03;;;;;;;2.25;0.70;;;2.00;98.10;;;;;;5012010;28;20022;-78
2022/04/16 01:15:29;;;;;;;1.35;0.60;;;2.00;97.90;;;;;;5012176;28;20030;-79
2022/04/16 01:17:56;;;;;;;1.13;0.88;;;2.00;97.90;;;;;;5011742;28;20156;-78
2022/04/16 01:20:23;;;;;;;1.40;0.70;;;2.00;97.60;;;;;;5012203;28;20444;-76
2022/04/16 01:22:51;;;;;;;1.52;0.88;;;2.00;97.40;;;;;;5012002;28;20022;-79
2022/04/16 01:25:18;;;;;;;2.47;0.70;;;2.00;97.30;;;;;;5011938;28;20018;-80
2022/04/16 01:27:45;;;;;;;1.02;0.65;;;2.00;97.60;;;;;;5012006;28;20021;-80
2022/04/16 01:30:16;;;;;;;0.50;0.50;;;2.00;98.00;;;;;;5011803;28;20026;-80
2022/04/16 01:32:41;;;;;;;0.68;0.68;;;2.00;98.30;;;;;;5010769;28;20022;-80
2022/04/16 01:35:08;;;;;;;0.95;0.60;;;1.90;99.00;;;;;;5012044;28;20026;-80
2022/04/16 01:37:35;;;;;;;0.70;0.70;;;1.90;99.50;;;;;;5011510;28;20025;-78
2022/04/16 01:40:05;;;;;;;1.48;0.68;;;1.80;99.90;;;;;;5011719;28;20038;-79
2022/04/16 01:42:32;;;;;;;;;;;1.80;99.90;;;;;;5012306;28;20064;-79
2022/04/16 01:45:01;;;;;;;3.85;0.70;;;1.80;99.90;;;;;;5011752;28;19952;-79
2022/04/16 01:47:28;;;;;;;1.88;0.70;;;1.80;99.90;;;;;;5011731;28;20397;-80
2022/04/16 01:49:55;;;;;;;1.40;1.08;;;1.70;99.90;;;;;;5011664;28;20512;-79
2022/04/16 01:52:23;;;;;;;1.17;0.85;;;1.70;99.90;;;;;;5011733;28;20100;-80
2022/04/16 01:54:49;;;;;;;1.38;0.90;;;1.70;99.90;;;;;;5011673;28;20030;-81
2022/04/16 01:57:18;;;;;;;1.65;0.82;;;1.70;99.90;;;;;;5012221;28;20033;-81
2022/04/16 01:59:48;;;;;;;0.90;0.70;;;1.70;99.90;;;;;;5015647;28;20072;-81
2022/04/16 02:02:17;;;;;;;3.13;0.63;;;1.70;99.90;;;;;;5015959;28;20026;-87
2022/04/16 02:04:43;;;;;;;1.25;0.70;;;1.70;99.90;;;;;;5014354;28;20026;-82
2022/04/16 02:07:10;;;;;;;11.52;0.93;;;1.70;99.90;;;;;;5015181;28;20056;-83
2022/04/16 02:09:36;;;;;;;3.25;0.80;;;1.70;99.90;;;;;;5015240;28;20576;-83
2022/04/16 02:12:02;;;;;;;4.13;0.90;;;1.70;99.90;;;;;;5015189;28;20113;-83
2022/04/16 02:14:28;;;;;;;3.38;0.80;;;1.60;99.90;;;;;;5015185;28;20026;-83
2022/04/16 02:16:54;;;;;;;4.70;0.93;;;1.70;99.90;;;;;;5015270;28;20026;-84
2022/04/16 02:19:20;;;;;;;6.00;0.80;;;1.60;99.90;;;;;;5015877;28;20042;-85
2022/04/16 02:21:47;;;;;;;9.52;0.90;;;1.70;99.90;;;;;;5015506;28;20022;-86
2022/04/16 02:24:13;;;;;;;8.63;0.70;;;1.70;99.90;;;;;;5015460;28;20022;-86
2022/04/16 02:55:46;;;;;;;0.70;0.70;;;1.40;99.90;;;;;;5003892;28;20057;-85
2022/04/16 02:58:12;;;;;;;0.68;0.68;;;1.40;99.90;;;;;;5017056;28;20022;-85
2022/04/16 03:00:39;;;;;;;0.93;0.77;;;1.40;99.90;;;;;;5014400;28;20080;-86
2022/04/16 03:03:05;;;;;;;2.65;1.00;;;1.40;99.90;;;;;;5014427;28;20025;-84
2022/04/16 03:36:35;;;;;;;1.75;0.60;;;1.10;99.90;;;;;;6034178;23;20294;-82
2022/04/16 03:39:00;;;;;;;2.08;0.80;;;1.10;99.90;;;;;;4994651;28;20559;-88
2022/04/16 03:41:27;;;;;;;0.60;0.60;;;1.20;99.90;;;;;;4996667;28;20057;-87
2022/04/16 03:43:53;;;;;;;0.98;0.80;;;1.20;99.90;;;;;;5014607;28;20041;-87
2022/04/16 03:46:18;;;;;;;2.13;0.70;;;1.30;99.90;;;;;;5014719;28;20536;-88
2022/04/16 03:48:44;;;;;;;0.60;0.60;;;1.30;99.90;;;;;;4997671;28;20445;-88
2022/04/16 03:51:10;;;;;;;1.40;0.80;;;1.40;99.90;;;;;;4994083;28;20023;-87
2022/04/16 03:53:35;;;;;;;2.40;0.70;;;1.40;99.90;;;;;;4994450;28;20072;-88
2022/04/16 04:01:29;;;;;;;0.60;0.60;;;1.50;99.90;;;;;;4994275;28;20029;-86
2022/04/16 04:03:55;;;;;;;0.80;0.70;;;1.50;99.90;;;;;;4993709;28;20388;-88
2022/04/16 04:06:21;;;;;;;0.70;0.70;;;1.50;99.90;;;;;;4993937;28;20018;-87
2022/04/16 04:08:46;;;;;;;0.90;0.70;;;1.50;99.90;;;;;;4993735;28;20027;-85
2022/04/16 04:11:12;;;;;;;2.50;0.70;;;1.50;99.90;;;;;;4993380;28;20022;-85
2022/04/16 04:13:38;;;;;;;0.70;0.70;;;1.50;99.90;;;;;;4993461;28;20030;-85
2022/04/16 04:16:04;;;;;;;0.43;0.43;;;1.50;99.90;;;;;;4976124;28;20022;-82
2022/04/16 04:18:29;;;;;;;0.73;0.70;;;1.50;99.90;;;;;;4993439;28;20038;-82
2022/04/16 04:20:56;;;;;;;1.35;0.80;;;1.50;99.90;;;;;;4992424;28;20492;-82
2022/04/16 04:23:22;;;;;;;0.70;0.70;;;1.50;99.90;;;;;;4993248;28;20041;-82
2022/04/16 04:25:49;;;;;;;1.00;0.70;;;1.60;99.90;;;;;;4993272;28;20026;-83
2022/04/16 04:28:15;;;;;;;1.88;0.80;;;1.60;99.90;;;;;;4993028;28;20026;-84
2022/04/16 04:30:41;;;;;;;1.77;0.70;;;1.60;99.90;;;;;;4991940;28;20108;-76
2022/04/16 04:33:07;;;;;;;1.08;0.70;;;1.70;99.90;;;;;;4992901;28;20050;-71
2022/04/16 04:35:33;;;;;;;0.70;0.70;;;1.70;99.90;;;;;;4993044;28;20032;-75
2022/04/16 04:37:58;;;;;;;0.80;0.80;;;1.70;99.90;;;;;;4992483;28;20046;-74
2022/04/16 04:40:24;;;;;;;7.38;0.77;;;2.00;99.90;;;;;;4992969;28;20026;-72
2022/04/16 04:42:50;;;;;;;2.35;0.70;;;2.00;99.90;;;;;;4992921;28;20022;-77
2022/04/16 04:45:16;;;;;;;4.97;0.93;;;2.00;99.90;;;;;;4992927;28;20042;-70
2022/04/16 04:47:42;;;;;;;3.03;0.82;;;2.10;99.90;;;;;;4992801;28;20051;-72
2022/04/16 04:50:09;;;;;;;1.63;0.85;;;2.10;99.90;;;;;;4992684;28;20058;-75
2022/04/16 04:52:37;;;;;;;3.08;1.48;;;2.10;99.90;;;;;;5009265;28;20393;-74
2022/04/16 04:55:06;;;;;;;12.25;3.65;;;2.00;99.90;;;;;;5012101;28;20234;-74
2022/04/16 04:57:31;;;;;;;12.88;3.75;;;1.90;99.90;;;;;;5012388;28;20028;-75
2022/04/16 04:59:57;;;;;;;1.30;1.20;;;1.90;99.90;;;;;;5011809;28;20034;-75
2022/04/16 05:02:23;;;;;;;1.75;1.30;;;1.90;99.90;;;;;;5012737;28;20076;-75
2022/04/16 05:04:48;;;;;;;3.35;2.50;;;1.90;99.90;;;;;;5012503;28;20105;-74
2022/04/16 05:07:14;;;;;;;0.93;0.75;;;1.90;99.90;;;;;;5011442;28;20362;-70
2022/04/16 05:09:40;;;;;;;1.75;0.70;;;1.90;99.90;;;;;;5008602;28;20053;-70
2022/04/16 05:12:06;;;;;;;0.82;0.73;;;2.00;99.90;;;;;;5011303;28;20056;-70
2022/04/16 05:14:32;;;;;;;3.92;1.17;;;1.90;99.90;;;;;;5006037;28;20030;-70
2022/04/16 05:16:58;;;;;;;0.85;0.70;;;2.00;99.90;;;;;;5009806;28;20033;-70
2022/04/16 05:19:24;;;;;;;0.70;0.70;;;2.00;99.90;;;;;;5011135;28;20100;-70
2022/04/16 05:21:50;;;;;;;0.93;0.80;;;2.00;99.90;;;;;;5008673;28;20581;-70
2022/04/16 05:24:16;;;;;;;1.60;0.80;;;2.10;99.90;;;;;;5011513;28;20038;-71
2022/04/16 05:26:41;;;;;;;0.70;0.70;;;2.00;99.90;;;;;;5007993;28;20022;-71
2022/04/16 05:29:07;;;;;;;1.80;0.73;;;2.10;99.90;;;;;;5010496;28;20034;-74
2022/04/16 05:31:34;;;;;;;1.13;0.77;;;2.10;99.90;;;;;;5012071;28;20033;-76
2022/04/16 05:34:18;;;;;;;1.15;0.65;;;2.20;99.90;;;;;;5015641;28;20034;-76
2022/04/16 05:36:48;;;;;;;0.95;0.60;;;2.30;99.90;;;;;;5015672;28;20025;-75
2022/04/16 05:39:18;;;;;;;2.17;0.93;;;2.30;99.90;;;;;;5015694;28;20045;-76
2022/04/16 05:41:44;;;;;;;2.83;0.90;;;2.30;99.90;;;;;;5016089;28;20030;-76
2022/04/16 05:44:10;;;;;;;1.13;0.80;;;2.30;99.90;;;;;;5015633;28;20033;-76
2022/04/16 05:46:35;;;;;;;0.60;0.60;;;2.30;99.90;;;;;;5015862;28;20022;-76
2022/04/16 05:49:02;;;;;;;2.08;0.90;;;2.40;99.90;;;;;;5015925;28;20476;-76
2022/04/16 05:51:28;;;;;;;1.75;1.00;;;2.40;99.90;;;;;;5015721;28;20307;-76
2022/04/16 05:53:54;;;;;;;0.88;0.80;;;2.40;99.90;;;;;;5015829;28;20028;-76
2022/04/16 05:56:21;;;;;;;1.67;0.80;;;2.40;99.90;;;;;;4997875;28;20436;-76
2022/04/16 05:58:47;;;;;;;3.80;0.80;;;2.50;99.90;;;;;;5015434;28;20038;-76
2022/04/16 06:01:13;;;;;;;5.32;1.05;;;2.50;99.90;;;;;;5015416;28;20022;-76
2022/04/16 06:03:40;;;;;;;2.67;0.60;;;2.60;99.90;;;;;;5015418;28;20025;-77
2022/04/16 06:06:06;;;;;;;2.88;0.65;;;2.60;99.90;;;;;;5015183;28;20354;-77
2022/04/16 06:08:32;;;;;;;2.88;0.90;;;2.90;99.90;;;;;;5015324;28;20073;-72
2022/04/16 06:10:58;;;;;;;1.25;0.90;;;3.10;99.90;;;;;;5015369;28;20057;-77
2022/04/16 06:13:24;;;;;;;7.72;1.05;;;3.20;99.90;;;;;;4997372;28;20068;-79
2022/04/16 06:15:49;;;;;;;1.98;0.70;;;3.10;99.90;;;;;;5014719;28;20024;-69
2022/04/16 06:18:15;;;;;;;0.70;0.60;;;3.10;99.90;;;;;;5014364;28;20038;-68
2022/04/16 06:20:41;;;;;;;1.48;0.80;;;3.00;99.90;;;;;;5015215;28;20030;-66
2022/04/16 06:23:07;;;;;;;2.50;0.70;;;3.00;99.90;;;;;;5014112;28;20022;-67
2022/04/16 06:25:33;;;;;;;10.88;1.00;;;3.30;99.90;;;;;;5014480;28;20038;-67
2022/04/16 06:27:59;;;;;;;2.67;0.70;;;3.90;99.90;;;;;;5009016;28;20021;-68
2022/04/16 06:30:25;;;;;;;4.72;0.70;;;4.20;99.90;;;;;;5009006;28;20363;-68
2022/04/16 06:32:51;;;;;;;6.00;0.88;;;4.50;99.90;;;;;;5004651;28;20033;-67
2022/04/16 06:35:16;;;;;;;2.13;0.65;;;4.70;99.90;;;;;;4995345;28;20026;-67
2022/04/16 06:37:42;;;;;;;0.47;0.38;;;4.90;99.90;;;;;;4994845;28;20097;-68
2022/04/16 06:40:09;;;;;;;2.05;0.80;;;5.10;99.90;;;;;;4995049;28;20030;-67
2022/04/16 06:42:36;;;;;;;1.50;0.50;;;5.20;99.90;;;;;;4995319;28;20019;-67
2022/04/16 06:45:02;;;;;;;3.50;0.50;;;5.30;99.90;;;;;;4994114;28;20366;-67
2022/04/16 06:47:31;;;;;;;2.05;0.50;;;5.30;99.90;;;;;;4994747;28;20122;-67
2022/04/16 06:49:57;;;;;;;1.20;0.60;;;5.40;99.90;;;;;;4994974;28;20022;-67
2022/04/16 06:52:23;;;;;;;0.35;0.35;;;5.40;99.60;;;;;;4994733;28;20026;-68
2022/04/16 06:54:49;;;;;;;2.83;0.47;;;5.50;99.90;;;;;;4995110;28;20077;-67
2022/04/16 06:57:15;;;;;;;7.50;1.17;;;5.60;99.60;;;;;;4999933;28;20065;-67
2022/04/16 06:59:40;;;;;;;3.55;0.95;;;5.70;99.10;;;;;;5014143;28;20508;-67
2022/04/16 07:02:08;;;;;;;3.63;0.55;;;5.80;97.80;;;;;;5014260;28;20101;-72
2022/04/16 07:04:34;;;;;;;2.28;0.60;;;5.70;92.20;;;;;;5014269;28;20030;-69
2022/04/16 07:07:00;;;;;;;1.58;0.50;;;5.40;91.10;;;;;;5016149;28;20105;-71
2022/04/16 07:09:26;;;;;;;1.15;0.60;;;5.10;91.60;;;;;;5014022;28;20026;-72
2022/04/16 07:11:52;;;;;;;0.73;0.52;;;4.90;91.30;;;;;;5014207;28;20026;-72
2022/04/16 07:14:19;;;;;;;0.70;0.60;;;4.80;92.00;;;;;;5014055;28;20101;-71
2022/04/16 07:16:45;;;;;;;3.15;0.70;;;4.70;92.40;;;;;;5014146;28;20034;-70
2022/04/16 07:19:10;;;;;;;6.13;0.73;;;4.70;93.00;;;;;;4996307;28;20117;-70
2022/04/16 07:21:36;;;;;;;1.25;0.77;;;4.80;92.90;;;;;;5015798;28;20444;-71
2022/04/16 07:24:02;;;;;;;1.48;1.17;;;4.80;92.60;;;;;;4995581;28;20022;-71
2022/04/16 07:26:27;;;;;;;2.42;0.55;;;4.80;92.40;;;;;;5011161;28;20493;-71
2022/04/16 07:28:53;;;;;;;2.15;0.40;;;4.80;91.90;;;;;;4994316;28;20041;-71
2022/04/16 07:31:19;;;;;;;13.57;1.23;;;4.80;91.80;;;;;;4994203;28;20112;-70
2022/04/16 07:33:45;;;;;;;10.75;1.05;;;5.10;99.80;;;;;;4994380;28;20022;-69
2022/04/16 07:36:11;;;;;;;3.80;0.60;;;5.30;98.60;;;;;;4993885;28;20081;-69
2022/04/16 07:38:37;;;;;;;7.15;0.82;;;5.40;94.50;;;;;;4993835;28;20078;-70
2022/04/16 07:41:03;;;;;;;3.00;0.90;;;5.40;92.50;;;;;;4994010;28;20058;-70
2022/04/16 07:43:29;;;;;;;5.45;0.80;;;5.60;98.60;;;;;;4993711;28;20414;-74
2022/04/16 07:46:00;;;;;;;2.83;0.50;;;5.70;92.60;;;;;;4993976;28;20070;-72
2022/04/16 07:48:25;;;;;;;1.70;0.65;;;5.60;90.50;;;;;;5006907;28;20041;-71
2022/04/16 07:50:51;;;;;;;3.53;0.68;;;5.50;89.70;;;;;;5013521;28;20477;-71
2022/04/16 07:53:17;;;;;;;2.58;0.55;;;5.50;89.00;;;;;;5013245;28;20426;-71
2022/04/16 07:55:42;;;;;;;8.30;0.90;;;5.50;88.90;;;;;;4992229;28;20063;-68
2022/04/16 07:58:09;;;;;;;21.05;1.95;;;5.50;88.30;;;;;;5009889;28;20417;-70
2022/04/16 08:00:35;;;;;;;4.80;0.90;;;5.60;95.40;;;;;;5010254;28;20028;-70
2022/04/16 08:03:01;;;;;;;4.35;0.70;;;6.20;99.90;;;;;;5013227;28;20032;-70
2022/04/16 08:05:26;;;;;;;2.25;0.70;;;6.90;94.10;;;;;;5013158;28;20107;-71
2022/04/16 08:07:52;;;;;;;3.05;0.50;;;6.70;85.70;;;;;;5013098;28;20032;-71
2022/04/16 08:10:18;;;;;;;3.80;0.63;;;6.50;82.40;;;;;;5012937;28;20044;-71
2022/04/16 08:12:44;;;;;;;2.00;0.73;;;6.30;82.20;;;;;;5013459;28;20026;-71
2022/04/16 08:15:10;;;;;;;11.95;1.02;;;6.20;81.30;;;;;;5012877;28;20390;-71
2022/04/16 08:17:37;;;;;;;1.27;0.50;;;6.30;81.70;;;;;;5012891;28;20489;-71
2022/04/16 08:20:05;;;;;;;2.97;0.70;;;6.30;79.80;;;;;;5012920;28;20035;-71
2022/04/16 08:22:34;;;;;;;1.88;0.50;;;6.30;79.00;;;;;;5008126;28;20489;-71
2022/04/16 08:27:46;;;;;;;3.92;0.65;;;6.40;77.40;;;;;;4993388;28;20023;-71
2022/04/16 08:30:16;;;;;;;1.60;0.70;;;6.50;76.70;;;;;;4993115;28;20029;-71
2022/04/16 08:32:43;;;;;;;5.70;0.80;;;6.50;75.20;;;;;;4993275;28;20018;-71
2022/04/16 08:35:14;;;;;;;0.70;0.50;;;6.60;74.50;;;;;;4995906;28;20145;-71
2022/04/16 08:37:40;;;;;;;1.73;0.90;;;6.60;74.10;;;;;;5012456;28;20081;-71
2022/04/16 08:40:07;;;;;;;4.80;0.93;;;6.70;73.20;;;;;;5012541;28;20030;-71
2022/04/16 08:42:34;;;;;;;5.70;1.13;;;6.80;72.20;;;;;;4994790;28;20134;-71
2022/04/16 08:45:05;;;;;;;1.20;0.50;;;6.80;71.30;;;;;;4996285;28;20022;-71
2022/04/16 08:47:31;;;;;;;3.50;0.52;;;6.90;69.70;;;;;;4992523;28;20112;-71
2022/04/16 08:49:58;;;;;;;1.30;0.40;;;6.90;68.00;;;;;;4992731;28;20034;-71
2022/04/16 08:52:28;;;;;;;5.15;0.60;;;6.90;68.00;;;;;;4992713;28;20161;-71
2022/04/16 08:54:55;;;;;;;3.50;0.50;;;7.00;67.60;;;;;;5001848;28;20489;-71
2022/04/16 08:57:21;;;;;;;3.40;0.50;;;7.10;66.30;;;;;;5012009;28;20173;-71
2022/04/16 08:59:54;;;;;;;3.05;0.60;;;7.20;65.90;;;;;;5012083;28;20532;-71
2022/04/16 09:02:22;;;;;;;9.23;0.98;;;7.30;65.10;;;;;;5012264;28;20041;-71
2022/04/16 09:04:48;;;;;;;6.70;0.60;;;7.40;64.80;;;;;;5012154;28;20025;-71
2022/04/16 09:07:15;;;;;;;21.08;1.40;;;7.40;63.90;;;;;;5011557;28;20381;-71
2022/04/16 09:09:41;;;;;;;11.73;1.05;;;7.40;63.20;;;;;;5012051;28;20018;-71
2022/04/16 09:12:20;;;;;;;33.20;1.70;;;7.50;63.80;;;;;;5012046;28;20036;-71
2022/04/16 09:14:46;;;;;;;30.45;1.80;;;7.60;63.60;;;;;;5012162;28;20038;-71
2022/04/16 09:17:18;;;;;;;1.88;0.55;;;7.60;62.90;;;;;;5012103;28;20035;-71
2022/04/16 09:19:54;;;;;;;5.18;0.57;;;7.70;62.00;;;;;;5012009;28;20477;-71
2022/04/16 09:22:49;;;;;;;2.40;0.50;;;7.70;62.40;;;;;;4994295;28;20034;-71
2022/04/16 09:25:17;;;;;;;2.00;0.38;;;7.80;62.00;;;;;;4995053;28;20620;-71
2022/04/16 09:27:46;;;;;;;5.15;0.65;;;7.90;60.80;;;;;;5011870;28;20473;-71
2022/04/16 09:30:13;;;;;;;5.88;0.80;;;8.00;60.50;;;;;;5011802;28;20038;-71
2022/04/16 09:32:45;;;;;;;4.82;0.60;;;8.00;60.00;;;;;;5012033;28;20022;-71
2022/04/16 09:35:40;;;;;;;3.80;0.75;;;8.10;60.00;;;;;;5011950;28;20022;-71
2022/04/16 09:38:07;;;;;;;5.03;0.80;;;8.20;58.50;;;;;;4994675;28;20045;-72
2022/04/16 09:40:34;;;;;;;4.32;0.30;;;8.20;58.70;;;;;;5011820;28;20600;-71
2022/04/16 09:43:03;;;;;;;1.10;0.57;;;8.30;58.80;;;;;;5012021;28;20030;-71
2022/04/16 09:45:29;;;;;;;0.50;0.40;;;8.30;58.30;;;;;;5011839;28;20034;-71
2022/04/16 09:47:56;;;;;;;80.60;5.18;;;8.40;57.80;;;;;;5011859;28;20479;-71
2022/04/16 09:50:24;;;;;;;6.70;0.88;;;8.50;57.80;;;;;;5011958;28;20026;-74
2022/04/16 09:52:51;;;;;;;1.83;0.68;;;8.60;58.40;;;;;;5011857;28;20105;-68
2022/04/16 09:55:20;;;;;;;5.55;0.50;;;8.70;60.30;;;;;;5011519;28;20038;-68
2022/04/16 09:57:49;;;;;;;4.85;0.50;;;9.30;73.40;;;;;;5011671;28;20068;-68
2022/04/16 10:00:16;;;;;;;4.43;0.60;;;9.50;59.30;;;;;;5011754;28;20037;-67
2022/04/16 10:02:43;;;;;;;2.08;0.68;;;9.40;56.80;;;;;;5011814;28;20026;-66
2022/04/16 10:05:09;;;;;;;1.85;0.60;;;9.30;56.30;;;;;;5011681;28;20034;-70
2022/04/16 10:07:37;;;;;;;2.45;0.50;;;9.30;55.40;;;;;;5014841;28;20033;-70
2022/04/16 10:10:06;;;;;;;0.90;0.70;;;9.20;54.80;;;;;;5011681;28;20108;-70
2022/04/16 10:15:22;;;;;;;3.33;0.68;;;9.30;54.40;;;;;;5011237;28;20032;-70
2022/04/16 10:17:52;;;;;;;20.80;1.15;;;9.30;54.40;;;;;;5011537;28;20057;-70
2022/04/16 10:20:23;;;;;;;1.05;0.50;;;9.30;53.70;;;;;;5014895;28;20477;-69
2022/04/16 10:23:07;;;;;;;5.93;1.02;;;9.40;54.70;;;;;;5015147;28;20088;-70
2022/04/16 10:25:34;;;;;;;0.65;0.40;;;9.40;53.90;;;;;;5014871;28;20029;-70
2022/04/16 10:28:05;;;;;;;4.88;0.35;;;9.40;54.30;;;;;;5014931;28;20489;-70
2022/04/16 10:31:05;;;;;;;3.22;0.50;;;9.40;53.00;;;;;;5005100;28;20045;-70
2022/04/16 10:33:31;;;;;;;3.92;0.60;;;9.50;53.00;;;;;;5009370;28;20042;-72
2022/04/16 10:36:02;;;;;;;4.25;0.68;;;9.50;53.20;;;;;;5015142;28;20481;-72
2022/04/16 10:38:40;;;;;;;1.48;0.40;;;9.60;53.00;;;;;;5014406;28;20060;-73
2022/04/16 10:41:19;;;;;;;4.20;0.95;;;9.60;52.30;;;;;;5014983;28;20064;-72
2022/04/16 10:43:59;;;;;;;12.57;1.08;;;9.60;52.60;;;;;;5014249;28;20053;-72
2022/04/16 10:46:38;;;;;;;3.42;0.65;;;9.70;52.40;;;;;;5014135;28;20022;-73
2022/04/16 10:49:08;;;;;;;13.50;0.63;;;9.80;52.40;;;;;;5008481;28;20045;-72
2022/04/16 10:51:35;;;;;;;4.70;0.57;;;9.80;51.80;;;;;;5008228;28;20104;-73
2022/04/16 10:54:10;;;;;;;22.20;1.17;;;9.80;51.40;;;;;;4996841;28;20060;-74
2022/04/16 10:56:39;;;;;;;3.45;0.57;;;9.90;51.20;;;;;;5014299;28;20029;-73
2022/04/16 10:59:07;;;;;;;3.83;0.77;;;9.90;50.90;;;;;;5014351;28;20056;-72
2022/04/16 11:01:34;;;;;;;8.63;0.75;;;9.90;50.80;;;;;;5014123;28;20048;-72
2022/04/16 11:04:14;;;;;;;3.30;0.80;;;9.90;51.40;;;;;;4996835;28;20022;-72
2022/04/16 11:06:51;;;;;;;4.85;0.50;;;10.00;51.40;;;;;;5014255;28;20029;-72
2022/04/16 11:09:18;;;;;;;1.08;0.60;;;10.10;51.60;;;;;;4996685;28;20040;-72
2022/04/16 11:11:49;;;;;;;13.80;0.73;;;10.10;51.40;;;;;;5013970;28;20057;-73
2022/04/16 11:14:15;;;;;;;1.65;0.45;;;10.20;51.50;;;;;;5014079;28;20108;-73
2022/04/16 11:16:45;;;;;;;6.05;0.60;;;10.30;57.20;;;;;;5014198;28;20057;-72
2022/04/16 11:19:13;;;;;;;6.78;0.75;;;10.90;61.10;;;;;;5013820;28;20034;-72
2022/04/16 11:21:39;;;;;;;9.25;1.48;;;11.10;58.50;;;;;;5013901;28;20061;-72
2022/04/16 11:24:05;;;;;;;13.02;1.08;;;12.50;73.90;;;;;;5013896;28;20105;-69
2022/04/16 11:34:51;;;;;;;8.52;1.30;;;11.70;52.70;;;;;;5007832;28;20060;-69
2022/04/16 11:37:17;;;;;;;5.55;0.75;;;11.50;52.50;;;;;;5012423;28;20050;-69
2022/04/16 11:39:42;;;;;;;39.95;1.85;;;11.50;61.10;;;;;;5012600;28;20030;-68
2022/04/16 11:42:09;;;;;;;8.43;1.17;;;12.00;56.50;;;;;;5013105;28;20025;-69
2022/04/16 11:44:44;;;;;;;5.13;1.33;;;11.80;54.30;;;;;;5012714;28;20421;-68
2022/04/16 11:47:11;;;;;;;5.63;0.63;;;11.50;52.90;;;;;;5012984;28;20068;-68
2022/04/16 11:49:38;;;;;;;6.63;0.95;;;11.40;52.60;;;;;;5012576;28;20030;-68
2022/04/16 11:52:05;;;;;;;10.80;1.50;;;11.20;52.00;;;;;;5013692;28;20444;-68
2022/04/16 11:54:32;;;;;;;5.53;0.90;;;11.10;52.80;;;;;;5013389;28;20087;-69
2022/04/16 11:56:58;;;;;;;17.17;0.70;;;11.10;53.60;;;;;;5013589;28;20025;-69
2022/04/16 11:59:25;;;;;;;10.35;0.80;;;11.10;52.80;;;;;;5013307;28;20042;-69
2022/04/16 12:02:06;;;;;;;11.85;2.30;;;11.10;52.70;;;;;;5013460;28;20037;-72
2022/04/16 12:04:37;;;;;;;2.95;1.17;;;11.00;52.50;;;;;;5013024;28;20031;-70
2022/04/16 12:07:17;;;;;;;11.75;2.50;;;11.00;52.90;;;;;;5013258;28;20030;-73
2022/04/16 12:09:49;;;;;;;28.35;7.50;;;10.90;53.20;;;;;;5013053;28;20021;-74
2022/04/16 12:12:20;;;;;;;10.88;3.22;;;10.90;53.60;;;;;;5013275;28;20056;-69
2022/04/16 12:14:51;;;;;;;11.35;1.95;;;10.90;53.40;;;;;;5012796;28;20031;-69
2022/04/16 12:17:29;;;;;;;7.82;2.67;;;11.00;53.80;;;;;;5013045;28;20034;-69
2022/04/16 12:20:08;;;;;;;11.25;4.25;;;11.00;53.70;;;;;;5012885;28;20112;-69
2022/04/16 12:22:52;;;;;;;4.95;1.73;;;11.00;54.10;;;;;;5012999;28;20022;-69
2022/04/16 12:25:20;;;;;;;7.72;2.90;;;10.90;54.50;;;;;;5014805;28;20022;-68
2022/04/16 12:27:54;;;;;;;26.85;3.53;;;10.90;55.00;;;;;;5012524;28;20556;-69
2022/04/16 12:30:24;;;;;;;8.32;1.45;;;10.90;55.60;;;;;;5012039;28;20077;-69
2022/04/16 12:33:00;;;;;;;3.50;1.00;;;10.90;56.20;;;;;;5009769;28;20070;-69
2022/04/16 12:35:28;;;;;;;9.55;1.17;;;11.00;56.20;;;;;;5007793;28;20030;-70
2022/04/16 12:37:55;;;;;;;8.65;0.85;;;11.10;56.20;;;;;;4993018;28;20510;-70
2022/04/16 12:40:24;;;;;;;3.22;0.77;;;11.00;55.70;;;;;;5007458;28;20037;-67
2022/04/16 12:42:51;;;;;;;1.38;0.65;;;11.00;56.20;;;;;;5011928;28;20045;-68
2022/04/16 12:45:17;;;;;;;0.98;0.50;;;11.00;56.20;;;;;;5012553;28;20032;-71
2022/04/16 12:47:43;;;;;;;4.43;0.60;;;10.90;56.20;;;;;;5012432;28;20021;-69
2022/04/16 12:50:09;;;;;;;5.43;0.98;;;10.90;56.70;;;;;;5012173;28;20509;-70
2022/04/16 12:52:35;;;;;;;2.70;0.40;;;11.00;57.70;;;;;;5011942;28;20048;-72
2022/04/16 12:55:02;;;;;;;2.97;0.60;;;11.00;57.10;;;;;;5012394;28;20373;-70
2022/04/16 12:57:28;;;;;;;0.47;0.40;;;11.10;57.10;;;;;;5012208;28;20117;-70
2022/04/16 12:59:54;;;;;;;1.80;0.70;;;11.10;56.10;;;;;;5012642;28;20113;-70
2022/04/16 13:02:20;;;;;;;7.13;0.68;;;11.10;56.20;;;;;;5012269;28;20022;-70
2022/04/16 13:04:46;;;;;;;5.32;0.60;;;11.10;56.40;;;;;;5011887;28;20133;-70
2022/04/16 13:07:12;;;;;;;3.25;0.63;;;11.10;56.60;;;;;;5012183;28;20032;-70
2022/04/16 13:09:38;;;;;;;2.65;0.52;;;11.00;56.80;;;;;;5011924;28;20113;-70
2022/04/16 13:12:03;;;;;;;4.13;1.60;;;11.00;56.80;;;;;;5012003;28;20393;-70
2022/04/16 13:14:29;;;;;;;4.95;1.45;;;11.00;56.90;;;;;;5011797;28;20076;-70
2022/04/16 13:16:55;;;;;;;10.75;5.47;;;11.00;56.60;;;;;;5012148;28;20033;-70
2022/04/16 13:19:22;;;;;;;16.33;9.25;;;10.90;56.90;;;;;;5012169;28;20165;-70
2022/04/16 13:21:48;;;;;;;15.65;8.65;;;10.90;57.10;;;;;;4994312;28;20117;-70
2022/04/16 13:24:15;;;;;;;8.00;5.00;;;10.90;57.20;;;;;;5012169;28;20108;-70
2022/04/16 13:26:44;;;;;;;10.82;2.67;;;10.90;57.20;;;;;;5011819;28;20025;-70
2022/04/16 13:29:10;;;;;;;6.82;3.78;;;10.90;57.50;;;;;;5012185;28;20038;-70
2022/04/16 13:31:36;;;;;;;14.18;6.72;;;10.90;57.50;;;;;;5012112;28;20029;-70
2022/04/16 13:34:02;;;;;;;29.90;16.52;;;10.90;57.70;;;;;;5012030;28;20026;-70
2022/04/16 13:36:28;;;;;;;14.55;7.22;;;10.90;57.80;;;;;;5011978;28;20456;-70
2022/04/16 13:38:55;;;;;;;3.15;1.85;;;10.90;57.70;;;;;;5011718;28;20057;-70
2022/04/16 13:41:40;;;;;;;1.70;0.82;;;10.80;57.90;;;;;;5011801;28;20068;-70
2022/04/16 13:44:07;;;;;;;4.10;1.00;;;10.80;58.10;;;;;;5012386;28;20033;-70
2022/04/16 13:46:34;;;;;;;1.92;1.05;;;10.80;58.20;;;;;;5011671;28;20389;-70
2022/04/16 13:49:00;;;;;;;2.25;1.42;;;10.70;58.30;;;;;;5011862;28;20032;-70
2022/04/16 13:51:26;;;;;;;2.65;0.70;;;10.70;58.30;;;;;;5011902;28;20021;-70
2022/04/16 13:53:51;;;;;;;1.80;1.05;;;10.70;58.50;;;;;;5013388;28;20030;-70
2022/04/16 13:56:17;;;;;;;1.70;0.80;;;10.70;58.60;;;;;;5015520;28;20018;-70
2022/04/16 13:58:43;;;;;;;4.97;1.10;;;10.70;58.50;;;;;;5015621;28;20495;-70
2022/04/16 14:01:13;;;;;;;51.47;2.63;;;10.60;58.80;;;;;;5015456;28;20118;-70
2022/04/16 14:03:39;;;;;;;;;;;10.60;59.10;;;;;;5016002;28;20157;-69
2022/04/16 14:06:04;;;;;;;2.80;0.88;;;10.60;59.50;;;;;;5015211;28;19945;-70
2022/04/16 14:08:30;;;;;;;1.15;0.50;;;10.60;59.40;;;;;;5015531;28;20057;-69
2022/04/16 14:10:57;;;;;;;2.05;0.60;;;10.50;59.20;;;;;;5015293;28;20418;-70
2022/04/16 14:13:25;;;;;;;1.67;0.60;;;10.50;59.30;;;;;;5015286;28;20160;-70
2022/04/16 14:15:51;;;;;;;8.02;0.60;;;10.50;59.50;;;;;;5014883;28;20021;-70